sensor_id;sensor_type;location;lat;lon;timestamp;P1;durP1;ratioP1;P2;durP2;ratioP2
64966;SDS011;51710;38.732;-121.358;2023-02-08T00:01:59;5.03;;;4.00;;
64966;SDS011;51710;38.732;-121.358;2023-02-08T00:04:25;5.93;;;3.55;;
64966;SDS011;51710;38.732;-121.358;2023-02-08T00:06:51;8.52;;;4.10;;
64966;SDS011;51710;38.732;-121.358;2023-02-08T00:09:17;6.82;;;4.00;;
64966;SDS011;51710;38.732;-121.358;2023-02-08T00:11:44;6.47;;;4.13;;
64966;SDS011;51710;38.732;-121.358;2023-02-08T00:14:10;5.38;;;3.90;;
64966;SDS011;51710;38.732;-121.358;2023-02-08T00:16:36;5.68;;;3.72;;
64966;SDS011;51710;38.732;-121.358;2023-02-08T00:19:02;7.95;;;3.60;;
64966;SDS011;51710;38.732;-121.358;2023-02-08T00:21:29;6.40;;;4.53;;
64966;SDS011;51710;38.732;-121.358;2023-02-08T00:23:55;5.40;;;3.95;;
64966;SDS011;51710;38.732;-121.358;2023-02-08T00:26:21;6.68;;;4.30;;
64966;SDS011;51710;38.732;-121.358;2023-02-08T00:28:48;6.65;;;4.50;;
64966;SDS011;51710;38.732;-121.358;2023-02-08T00:31:14;6.97;;;3.78;;
64966;SDS011;51710;38.732;-121.358;2023-02-08T00:33:40;6.65;;;3.45;;
64966;SDS011;51710;38.732;-121.358;2023-02-08T00:36:07;6.13;;;3.60;;
64966;SDS011;51710;38.732;-121.358;2023-02-08T00:38:34;5.50;;;3.72;;
64966;SDS011;51710;38.732;-121.358;2023-02-08T00:41:00;7.13;;;4.13;;
64966;SDS011;51710;38.732;-121.358;2023-02-08T00:43:26;8.13;;;3.90;;
64966;SDS011;51710;38.732;-121.358;2023-02-08T00:45:54;5.60;;;3.90;;
64966;SDS011;51710;38.732;-121.358;2023-02-08T00:48:21;6.00;;;3.50;;
64966;SDS011;51710;38.732;-121.358;2023-02-08T00:50:57;6.50;;;3.78;;
64966;SDS011;51710;38.732;-121.358;2023-02-08T00:53:26;5.28;;;3.40;;
64966;SDS011;51710;38.732;-121.358;2023-02-08T00:55:53;6.93;;;3.42;;
64966;SDS011;51710;38.732;-121.358;2023-02-08T00:58:20;4.78;;;3.50;;
64966;SDS011;51710;38.732;-121.358;2023-02-08T01:00:49;5.97;;;3.33;;
64966;SDS011;51710;38.732;-121.358;2023-02-08T01:03:18;6.07;;;3.50;;
64966;SDS011;51710;38.732;-121.358;2023-02-08T01:05:45;5.63;;;3.47;;
64966;SDS011;51710;38.732;-121.358;2023-02-08T01:08:11;5.88;;;3.65;;
64966;SDS011;51710;38.732;-121.358;2023-02-08T01:10:38;5.78;;;3.53;;
64966;SDS011;51710;38.732;-121.358;2023-02-08T01:13:04;4.85;;;3.40;;
64966;SDS011;51710;38.732;-121.358;2023-02-08T01:15:31;6.35;;;3.50;;
64966;SDS011;51710;38.732;-121.358;2023-02-08T01:17:57;5.97;;;4.00;;
64966;SDS011;51710;38.732;-121.358;2023-02-08T01:20:24;9.95;;;3.90;;
64966;SDS011;51710;38.732;-121.358;2023-02-08T01:22:53;5.82;;;3.20;;
64966;SDS011;51710;38.732;-121.358;2023-02-08T01:25:19;7.95;;;3.55;;
64966;SDS011;51710;38.732;-121.358;2023-02-08T01:27:46;5.97;;;3.30;;
64966;SDS011;51710;38.732;-121.358;2023-02-08T01:30:12;5.82;;;3.05;;
64966;SDS011;51710;38.732;-121.358;2023-02-08T01:32:38;5.05;;;3.40;;
64966;SDS011;51710;38.732;-121.358;2023-02-08T01:35:05;4.80;;;3.20;;
64966;SDS011;51710;38.732;-121.358;2023-02-08T01:37:31;5.18;;;3.33;;
64966;SDS011;51710;38.732;-121.358;2023-02-08T01:39:57;5.50;;;3.25;;
64966;SDS011;51710;38.732;-121.358;2023-02-08T01:42:24;5.43;;;3.10;;
64966;SDS011;51710;38.732;-121.358;2023-02-08T01:45:32;6.53;;;3.30;;
64966;SDS011;51710;38.732;-121.358;2023-02-08T01:47:48;5.70;;;3.38;;
64966;SDS011;51710;38.732;-121.358;2023-02-08T01:50:19;5.18;;;3.75;;
64966;SDS011;51710;38.732;-121.358;2023-02-08T01:52:54;6.53;;;3.70;;
64966;SDS011;51710;38.732;-121.358;2023-02-08T01:55:22;6.22;;;3.58;;
64966;SDS011;51710;38.732;-121.358;2023-02-08T01:57:58;5.28;;;3.22;;
64966;SDS011;51710;38.732;-121.358;2023-02-08T02:00:27;8.38;;;3.42;;
64966;SDS011;51710;38.732;-121.358;2023-02-08T02:02:54;6.15;;;3.60;;
64966;SDS011;51710;38.732;-121.358;2023-02-08T02:05:24;6.35;;;3.85;;
64966;SDS011;51710;38.732;-121.358;2023-02-08T02:07:59;6.07;;;3.50;;
64966;SDS011;51710;38.732;-121.358;2023-02-08T02:12:54;9.15;;;3.90;;
64966;SDS011;51710;38.732;-121.358;2023-02-08T02:15:25;6.68;;;3.60;;
64966;SDS011;51710;38.732;-121.358;2023-02-08T02:17:54;5.38;;;3.30;;
64966;SDS011;51710;38.732;-121.358;2023-02-08T02:26:02;8.18;;;4.50;;
64966;SDS011;51710;38.732;-121.358;2023-02-08T02:31:33;10.02;;;6.25;;
64966;SDS011;51710;38.732;-121.358;2023-02-08T02:34:09;26.50;;;16.25;;
64966;SDS011;51710;38.732;-121.358;2023-02-08T02:51:56;7.95;;;4.35;;
64966;SDS011;51710;38.732;-121.358;2023-02-08T02:57:05;7.55;;;4.13;;
64966;SDS011;51710;38.732;-121.358;2023-02-08T02:59:36;6.50;;;3.80;;
64966;SDS011;51710;38.732;-121.358;2023-02-08T03:02:04;5.50;;;4.07;;
64966;SDS011;51710;38.732;-121.358;2023-02-08T03:12:32;7.22;;;4.18;;
64966;SDS011;51710;38.732;-121.358;2023-02-08T03:15:31;7.05;;;4.32;;
64966;SDS011;51710;38.732;-121.358;2023-02-08T03:20:58;6.00;;;4.22;;
64966;SDS011;51710;38.732;-121.358;2023-02-08T03:23:27;7.68;;;4.40;;
64966;SDS011;51710;38.732;-121.358;2023-02-08T03:26:09;7.75;;;4.10;;
64966;SDS011;51710;38.732;-121.358;2023-02-08T03:28:53;7.30;;;4.20;;
64966;SDS011;51710;38.732;-121.358;2023-02-08T03:32:06;6.30;;;4.20;;
64966;SDS011;51710;38.732;-121.358;2023-02-08T03:35:06;6.50;;;4.15;;
64966;SDS011;51710;38.732;-121.358;2023-02-08T03:37:35;6.75;;;4.32;;
64966;SDS011;51710;38.732;-121.358;2023-02-08T03:40:35;7.13;;;3.95;;
64966;SDS011;51710;38.732;-121.358;2023-02-08T03:43:12;6.38;;;3.92;;
64966;SDS011;51710;38.732;-121.358;2023-02-08T03:45:45;7.32;;;4.00;;
64966;SDS011;51710;38.732;-121.358;2023-02-08T03:48:16;6.50;;;3.80;;
64966;SDS011;51710;38.732;-121.358;2023-02-08T03:50:48;6.90;;;4.28;;
64966;SDS011;51710;38.732;-121.358;2023-02-08T03:53:18;8.55;;;4.30;;
64966;SDS011;51710;38.732;-121.358;2023-02-08T03:55:47;6.07;;;4.03;;
64966;SDS011;51710;38.732;-121.358;2023-02-08T03:58:21;7.47;;;4.70;;
64966;SDS011;51710;38.732;-121.358;2023-02-08T04:00:57;8.30;;;4.10;;
64966;SDS011;51710;38.732;-121.358;2023-02-08T04:03:29;9.38;;;5.65;;
64966;SDS011;51710;38.732;-121.358;2023-02-08T04:05:58;7.35;;;4.55;;
64966;SDS011;51710;38.732;-121.358;2023-02-08T04:08:24;7.85;;;4.50;;
64966;SDS011;51710;38.732;-121.358;2023-02-08T04:10:51;9.60;;;5.18;;
64966;SDS011;51710;38.732;-121.358;2023-02-08T04:13:17;12.45;;;4.85;;
64966;SDS011;51710;38.732;-121.358;2023-02-08T04:15:43;7.93;;;4.15;;
64966;SDS011;51710;38.732;-121.358;2023-02-08T04:18:09;6.72;;;3.85;;
64966;SDS011;51710;38.732;-121.358;2023-02-08T04:20:36;6.90;;;3.83;;
64966;SDS011;51710;38.732;-121.358;2023-02-08T04:23:02;9.68;;;5.78;;
64966;SDS011;51710;38.732;-121.358;2023-02-08T04:25:28;7.85;;;4.72;;
64966;SDS011;51710;38.732;-121.358;2023-02-08T04:27:55;8.70;;;5.28;;
64966;SDS011;51710;38.732;-121.358;2023-02-08T04:30:21;8.02;;;5.18;;
64966;SDS011;51710;38.732;-121.358;2023-02-08T04:32:49;6.82;;;4.10;;
64966;SDS011;51710;38.732;-121.358;2023-02-08T04:35:15;6.70;;;4.20;;
64966;SDS011;51710;38.732;-121.358;2023-02-08T04:37:42;11.18;;;6.15;;
64966;SDS011;51710;38.732;-121.358;2023-02-08T04:40:08;8.35;;;5.05;;
64966;SDS011;51710;38.732;-121.358;2023-02-08T04:42:35;11.00;;;6.03;;
64966;SDS011;51710;38.732;-121.358;2023-02-08T04:45:01;29.98;;;14.98;;
64966;SDS011;51710;38.732;-121.358;2023-02-08T04:47:28;23.65;;;11.95;;
64966;SDS011;51710;38.732;-121.358;2023-02-08T04:49:54;20.48;;;10.27;;
64966;SDS011;51710;38.732;-121.358;2023-02-08T04:52:20;13.60;;;7.55;;
64966;SDS011;51710;38.732;-121.358;2023-02-08T04:54:46;12.25;;;7.43;;
64966;SDS011;51710;38.732;-121.358;2023-02-08T04:57:13;9.52;;;5.63;;
64966;SDS011;51710;38.732;-121.358;2023-02-08T04:59:39;8.73;;;5.40;;
64966;SDS011;51710;38.732;-121.358;2023-02-08T05:02:06;14.80;;;9.15;;
64966;SDS011;51710;38.732;-121.358;2023-02-08T05:04:32;11.02;;;7.72;;
64966;SDS011;51710;38.732;-121.358;2023-02-08T05:06:59;11.07;;;7.05;;
64966;SDS011;51710;38.732;-121.358;2023-02-08T05:09:25;10.68;;;6.88;;
64966;SDS011;51710;38.732;-121.358;2023-02-08T05:11:51;8.70;;;6.20;;
64966;SDS011;51710;38.732;-121.358;2023-02-08T05:14:18;9.35;;;5.93;;
64966;SDS011;51710;38.732;-121.358;2023-02-08T05:16:44;9.32;;;5.80;;
64966;SDS011;51710;38.732;-121.358;2023-02-08T05:19:10;7.95;;;5.00;;
64966;SDS011;51710;38.732;-121.358;2023-02-08T05:21:36;9.48;;;4.57;;
64966;SDS011;51710;38.732;-121.358;2023-02-08T05:24:03;8.57;;;4.80;;
64966;SDS011;51710;38.732;-121.358;2023-02-08T05:26:29;9.52;;;5.30;;
64966;SDS011;51710;38.732;-121.358;2023-02-08T05:28:56;7.38;;;4.97;;
64966;SDS011;51710;38.732;-121.358;2023-02-08T05:31:23;8.85;;;5.15;;
64966;SDS011;51710;38.732;-121.358;2023-02-08T05:33:50;10.10;;;5.80;;
64966;SDS011;51710;38.732;-121.358;2023-02-08T05:36:18;10.02;;;5.68;;
64966;SDS011;51710;38.732;-121.358;2023-02-08T05:38:47;9.95;;;5.63;;
64966;SDS011;51710;38.732;-121.358;2023-02-08T05:41:15;8.13;;;4.85;;
64966;SDS011;51710;38.732;-121.358;2023-02-08T05:43:41;9.88;;;4.80;;
64966;SDS011;51710;38.732;-121.358;2023-02-08T05:46:10;7.68;;;4.63;;
64966;SDS011;51710;38.732;-121.358;2023-02-08T05:48:41;7.20;;;4.85;;
64966;SDS011;51710;38.732;-121.358;2023-02-08T05:51:08;8.77;;;5.95;;
64966;SDS011;51710;38.732;-121.358;2023-02-08T05:53:34;8.23;;;4.97;;
64966;SDS011;51710;38.732;-121.358;2023-02-08T05:56:01;7.80;;;4.95;;
64966;SDS011;51710;38.732;-121.358;2023-02-08T05:58:27;7.93;;;5.90;;
64966;SDS011;51710;38.732;-121.358;2023-02-08T06:00:56;7.40;;;5.72;;
64966;SDS011;51710;38.732;-121.358;2023-02-08T06:03:22;10.05;;;6.18;;
64966;SDS011;51710;38.732;-121.358;2023-02-08T06:05:48;9.02;;;5.97;;
64966;SDS011;51710;38.732;-121.358;2023-02-08T06:08:15;9.32;;;5.50;;
64966;SDS011;51710;38.732;-121.358;2023-02-08T06:10:41;12.82;;;6.43;;
64966;SDS011;51710;38.732;-121.358;2023-02-08T06:13:08;10.32;;;5.90;;
64966;SDS011;51710;38.732;-121.358;2023-02-08T06:15:34;9.35;;;5.97;;
64966;SDS011;51710;38.732;-121.358;2023-02-08T06:18:00;9.10;;;6.00;;
64966;SDS011;51710;38.732;-121.358;2023-02-08T06:20:27;12.38;;;7.53;;
64966;SDS011;51710;38.732;-121.358;2023-02-08T06:22:53;18.83;;;10.23;;
64966;SDS011;51710;38.732;-121.358;2023-02-08T06:25:20;17.30;;;9.95;;
64966;SDS011;51710;38.732;-121.358;2023-02-08T06:27:48;18.17;;;10.57;;
64966;SDS011;51710;38.732;-121.358;2023-02-08T06:30:14;13.73;;;8.65;;
64966;SDS011;51710;38.732;-121.358;2023-02-08T06:32:41;14.65;;;8.68;;
64966;SDS011;51710;38.732;-121.358;2023-02-08T06:35:07;26.15;;;12.15;;
64966;SDS011;51710;38.732;-121.358;2023-02-08T06:37:34;18.33;;;9.40;;
64966;SDS011;51710;38.732;-121.358;2023-02-08T06:40:00;14.57;;;8.23;;
64966;SDS011;51710;38.732;-121.358;2023-02-08T06:42:27;12.73;;;8.48;;
64966;SDS011;51710;38.732;-121.358;2023-02-08T06:44:53;14.48;;;8.45;;
64966;SDS011;51710;38.732;-121.358;2023-02-08T06:47:23;13.73;;;8.02;;
64966;SDS011;51710;38.732;-121.358;2023-02-08T06:49:54;14.55;;;8.60;;
64966;SDS011;51710;38.732;-121.358;2023-02-08T06:52:20;12.45;;;7.68;;
64966;SDS011;51710;38.732;-121.358;2023-02-08T06:54:46;12.85;;;7.63;;
64966;SDS011;51710;38.732;-121.358;2023-02-08T06:57:13;12.02;;;7.40;;
64966;SDS011;51710;38.732;-121.358;2023-02-08T06:59:39;13.80;;;8.45;;
64966;SDS011;51710;38.732;-121.358;2023-02-08T07:02:13;17.10;;;9.63;;
64966;SDS011;51710;38.732;-121.358;2023-02-08T07:04:41;16.55;;;8.38;;
64966;SDS011;51710;38.732;-121.358;2023-02-08T07:07:08;16.40;;;8.30;;
64966;SDS011;51710;38.732;-121.358;2023-02-08T07:09:34;13.50;;;7.38;;
64966;SDS011;51710;38.732;-121.358;2023-02-08T07:12:01;12.95;;;7.80;;
64966;SDS011;51710;38.732;-121.358;2023-02-08T07:14:33;11.32;;;7.32;;
64966;SDS011;51710;38.732;-121.358;2023-02-08T07:17:02;14.27;;;8.10;;
64966;SDS011;51710;38.732;-121.358;2023-02-08T07:19:29;11.05;;;7.32;;
64966;SDS011;51710;38.732;-121.358;2023-02-08T07:21:55;13.80;;;8.55;;
64966;SDS011;51710;38.732;-121.358;2023-02-08T07:24:23;14.50;;;9.40;;
64966;SDS011;51710;38.732;-121.358;2023-02-08T07:26:49;14.60;;;9.07;;
64966;SDS011;51710;38.732;-121.358;2023-02-08T07:29:16;11.32;;;7.57;;
64966;SDS011;51710;38.732;-121.358;2023-02-08T07:31:42;12.70;;;7.50;;
64966;SDS011;51710;38.732;-121.358;2023-02-08T07:34:08;15.25;;;9.18;;
64966;SDS011;51710;38.732;-121.358;2023-02-08T07:36:35;12.00;;;7.57;;
64966;SDS011;51710;38.732;-121.358;2023-02-08T07:39:01;11.45;;;6.90;;
64966;SDS011;51710;38.732;-121.358;2023-02-08T07:41:28;9.15;;;5.90;;
64966;SDS011;51710;38.732;-121.358;2023-02-08T07:43:54;8.20;;;5.78;;
64966;SDS011;51710;38.732;-121.358;2023-02-08T07:46:20;8.75;;;6.10;;
64966;SDS011;51710;38.732;-121.358;2023-02-08T07:48:47;10.05;;;6.47;;
64966;SDS011;51710;38.732;-121.358;2023-02-08T07:51:17;11.65;;;6.45;;
64966;SDS011;51710;38.732;-121.358;2023-02-08T07:53:43;9.70;;;6.13;;
64966;SDS011;51710;38.732;-121.358;2023-02-08T07:56:10;11.48;;;6.55;;
64966;SDS011;51710;38.732;-121.358;2023-02-08T07:58:36;10.40;;;6.57;;
64966;SDS011;51710;38.732;-121.358;2023-02-08T08:01:02;10.05;;;6.80;;
64966;SDS011;51710;38.732;-121.358;2023-02-08T08:03:29;9.45;;;6.65;;
64966;SDS011;51710;38.732;-121.358;2023-02-08T08:05:55;15.10;;;8.63;;
64966;SDS011;51710;38.732;-121.358;2023-02-08T08:08:21;25.20;;;12.90;;
64966;SDS011;51710;38.732;-121.358;2023-02-08T08:10:48;17.95;;;8.55;;
64966;SDS011;51710;38.732;-121.358;2023-02-08T08:13:14;11.25;;;7.10;;
64966;SDS011;51710;38.732;-121.358;2023-02-08T08:15:41;11.90;;;7.40;;
64966;SDS011;51710;38.732;-121.358;2023-02-08T08:18:07;13.60;;;7.60;;
64966;SDS011;51710;38.732;-121.358;2023-02-08T08:20:34;16.17;;;9.32;;
64966;SDS011;51710;38.732;-121.358;2023-02-08T08:23:00;18.33;;;11.45;;
64966;SDS011;51710;38.732;-121.358;2023-02-08T08:25:26;20.95;;;12.10;;
64966;SDS011;51710;38.732;-121.358;2023-02-08T08:27:53;32.15;;;17.70;;
64966;SDS011;51710;38.732;-121.358;2023-02-08T08:30:21;38.22;;;18.30;;
64966;SDS011;51710;38.732;-121.358;2023-02-08T08:32:48;21.35;;;12.00;;
64966;SDS011;51710;38.732;-121.358;2023-02-08T08:35:15;16.92;;;10.68;;
64966;SDS011;51710;38.732;-121.358;2023-02-08T08:37:41;18.27;;;10.02;;
64966;SDS011;51710;38.732;-121.358;2023-02-08T08:40:08;17.23;;;10.80;;
64966;SDS011;51710;38.732;-121.358;2023-02-08T08:42:35;19.58;;;10.05;;
64966;SDS011;51710;38.732;-121.358;2023-02-08T08:45:02;16.83;;;9.75;;
64966;SDS011;51710;38.732;-121.358;2023-02-08T08:47:29;16.25;;;9.50;;
64966;SDS011;51710;38.732;-121.358;2023-02-08T08:49:55;12.45;;;8.05;;
64966;SDS011;51710;38.732;-121.358;2023-02-08T08:52:21;12.07;;;8.07;;
64966;SDS011;51710;38.732;-121.358;2023-02-08T08:54:47;16.92;;;8.63;;
64966;SDS011;51710;38.732;-121.358;2023-02-08T08:57:14;11.95;;;7.63;;
64966;SDS011;51710;38.732;-121.358;2023-02-08T08:59:41;13.65;;;7.43;;
64966;SDS011;51710;38.732;-121.358;2023-02-08T09:02:09;10.18;;;6.97;;
64966;SDS011;51710;38.732;-121.358;2023-02-08T09:04:37;12.00;;;7.00;;
64966;SDS011;51710;38.732;-121.358;2023-02-08T09:07:06;10.38;;;6.88;;
64966;SDS011;51710;38.732;-121.358;2023-02-08T09:09:33;10.82;;;6.60;;
64966;SDS011;51710;38.732;-121.358;2023-02-08T09:12:00;10.43;;;6.90;;
64966;SDS011;51710;38.732;-121.358;2023-02-08T09:14:27;10.77;;;6.65;;
64966;SDS011;51710;38.732;-121.358;2023-02-08T09:16:55;11.10;;;6.40;;
64966;SDS011;51710;38.732;-121.358;2023-02-08T09:19:22;9.50;;;6.00;;
64966;SDS011;51710;38.732;-121.358;2023-02-08T09:21:48;8.30;;;5.88;;
64966;SDS011;51710;38.732;-121.358;2023-02-08T09:24:15;9.88;;;5.95;;
64966;SDS011;51710;38.732;-121.358;2023-02-08T09:26:41;9.23;;;5.97;;
64966;SDS011;51710;38.732;-121.358;2023-02-08T09:29:10;8.52;;;5.80;;
64966;SDS011;51710;38.732;-121.358;2023-02-08T09:31:36;9.73;;;6.72;;
64966;SDS011;51710;38.732;-121.358;2023-02-08T09:34:04;9.70;;;5.80;;
64966;SDS011;51710;38.732;-121.358;2023-02-08T09:36:32;8.85;;;6.22;;
64966;SDS011;51710;38.732;-121.358;2023-02-08T09:39:16;9.60;;;6.00;;
64966;SDS011;51710;38.732;-121.358;2023-02-08T09:42:04;10.35;;;6.07;;
64966;SDS011;51710;38.732;-121.358;2023-02-08T09:44:49;10.48;;;6.90;;
64966;SDS011;51710;38.732;-121.358;2023-02-08T09:48:38;8.75;;;6.15;;
64966;SDS011;51710;38.732;-121.358;2023-02-08T09:50:43;11.20;;;7.63;;
64966;SDS011;51710;38.732;-121.358;2023-02-08T09:53:19;9.75;;;6.40;;
64966;SDS011;51710;38.732;-121.358;2023-02-08T09:55:52;11.05;;;6.45;;
64966;SDS011;51710;38.732;-121.358;2023-02-08T09:58:26;11.15;;;6.80;;
64966;SDS011;51710;38.732;-121.358;2023-02-08T10:00:54;10.85;;;6.30;;
64966;SDS011;51710;38.732;-121.358;2023-02-08T10:03:32;9.75;;;5.88;;
64966;SDS011;51710;38.732;-121.358;2023-02-08T10:06:04;10.82;;;5.55;;
64966;SDS011;51710;38.732;-121.358;2023-02-08T10:08:33;9.88;;;6.10;;
64966;SDS011;51710;38.732;-121.358;2023-02-08T10:11:22;10.80;;;6.68;;
64966;SDS011;51710;38.732;-121.358;2023-02-08T10:17:18;13.10;;;6.50;;
64966;SDS011;51710;38.732;-121.358;2023-02-08T10:20:05;12.13;;;6.88;;
64966;SDS011;51710;38.732;-121.358;2023-02-08T10:29:18;12.35;;;6.97;;
64966;SDS011;51710;38.732;-121.358;2023-02-08T10:35:43;13.63;;;7.80;;
64966;SDS011;51710;38.732;-121.358;2023-02-08T10:37:53;11.10;;;6.72;;
64966;SDS011;51710;38.732;-121.358;2023-02-08T10:40:44;11.90;;;7.57;;
64966;SDS011;51710;38.732;-121.358;2023-02-08T10:43:17;14.15;;;7.30;;
64966;SDS011;51710;38.732;-121.358;2023-02-08T10:46:30;12.48;;;7.45;;
64966;SDS011;51710;38.732;-121.358;2023-02-08T10:49:54;11.27;;;7.22;;
64966;SDS011;51710;38.732;-121.358;2023-02-08T10:52:27;16.05;;;8.68;;
64966;SDS011;51710;38.732;-121.358;2023-02-08T10:54:55;14.25;;;8.35;;
64966;SDS011;51710;38.732;-121.358;2023-02-08T10:57:23;15.07;;;9.57;;
64966;SDS011;51710;38.732;-121.358;2023-02-08T11:00:38;19.17;;;9.90;;
64966;SDS011;51710;38.732;-121.358;2023-02-08T11:05:20;18.08;;;9.95;;
64966;SDS011;51710;38.732;-121.358;2023-02-08T11:08:11;18.88;;;9.38;;
64966;SDS011;51710;38.732;-121.358;2023-02-08T11:13:20;18.38;;;9.52;;
64966;SDS011;51710;38.732;-121.358;2023-02-08T11:15:47;14.18;;;8.82;;
64966;SDS011;51710;38.732;-121.358;2023-02-08T11:18:30;15.90;;;9.60;;
64966;SDS011;51710;38.732;-121.358;2023-02-08T11:21:19;14.73;;;9.18;;
64966;SDS011;51710;38.732;-121.358;2023-02-08T11:24:01;13.25;;;6.97;;
64966;SDS011;51710;38.732;-121.358;2023-02-08T11:26:40;13.85;;;8.52;;
64966;SDS011;51710;38.732;-121.358;2023-02-08T11:34:23;14.85;;;7.95;;
64966;SDS011;51710;38.732;-121.358;2023-02-08T11:36:50;16.02;;;8.02;;
64966;SDS011;51710;38.732;-121.358;2023-02-08T11:39:20;13.43;;;7.90;;
64966;SDS011;51710;38.732;-121.358;2023-02-08T11:41:48;12.07;;;7.65;;
64966;SDS011;51710;38.732;-121.358;2023-02-08T11:44:34;12.35;;;7.43;;
64966;SDS011;51710;38.732;-121.358;2023-02-08T11:47:06;10.65;;;7.03;;
64966;SDS011;51710;38.732;-121.358;2023-02-08T11:49:37;15.65;;;7.75;;
64966;SDS011;51710;38.732;-121.358;2023-02-08T11:52:06;11.48;;;7.75;;
64966;SDS011;51710;38.732;-121.358;2023-02-08T11:54:53;12.57;;;7.78;;
64966;SDS011;51710;38.732;-121.358;2023-02-08T11:57:36;12.90;;;7.25;;
64966;SDS011;51710;38.732;-121.358;2023-02-08T12:00:23;10.57;;;7.47;;
64966;SDS011;51710;38.732;-121.358;2023-02-08T12:08:57;11.35;;;7.15;;
64966;SDS011;51710;38.732;-121.358;2023-02-08T12:14:17;13.63;;;8.43;;
64966;SDS011;51710;38.732;-121.358;2023-02-08T12:24:58;16.25;;;7.95;;
64966;SDS011;51710;38.732;-121.358;2023-02-08T12:27:57;12.52;;;7.68;;
64966;SDS011;51710;38.732;-121.358;2023-02-08T12:30:46;10.48;;;7.07;;
64966;SDS011;51710;38.732;-121.358;2023-02-08T12:50:53;11.48;;;6.63;;
64966;SDS011;51710;38.732;-121.358;2023-02-08T12:53:30;10.45;;;6.20;;
64966;SDS011;51710;38.732;-121.358;2023-02-08T12:56:05;10.57;;;5.82;;
64966;SDS011;51710;38.732;-121.358;2023-02-08T12:58:50;10.90;;;7.00;;
64966;SDS011;51710;38.732;-121.358;2023-02-08T13:01:38;10.73;;;6.18;;
64966;SDS011;51710;38.732;-121.358;2023-02-08T13:04:10;12.00;;;6.95;;
64966;SDS011;51710;38.732;-121.358;2023-02-08T13:06:45;9.95;;;6.32;;
64966;SDS011;51710;38.732;-121.358;2023-02-08T13:12:16;9.68;;;5.88;;
64966;SDS011;51710;38.732;-121.358;2023-02-08T13:14:54;8.27;;;5.43;;
64966;SDS011;51710;38.732;-121.358;2023-02-08T13:17:26;11.07;;;5.88;;
64966;SDS011;51710;38.732;-121.358;2023-02-08T13:19:59;8.18;;;4.70;;
64966;SDS011;51710;38.732;-121.358;2023-02-08T13:22:40;9.73;;;5.22;;
64966;SDS011;51710;38.732;-121.358;2023-02-08T13:25:28;8.68;;;4.38;;
64966;SDS011;51710;38.732;-121.358;2023-02-08T13:28:04;8.52;;;4.95;;
64966;SDS011;51710;38.732;-121.358;2023-02-08T13:30:34;6.95;;;4.40;;
64966;SDS011;51710;38.732;-121.358;2023-02-08T13:33:45;9.93;;;4.60;;
64966;SDS011;51710;38.732;-121.358;2023-02-08T13:35:57;7.47;;;4.53;;
64966;SDS011;51710;38.732;-121.358;2023-02-08T13:38:26;8.63;;;4.25;;
64966;SDS011;51710;38.732;-121.358;2023-02-08T13:41:05;7.88;;;4.30;;
64966;SDS011;51710;38.732;-121.358;2023-02-08T13:43:45;6.47;;;4.15;;
64966;SDS011;51710;38.732;-121.358;2023-02-08T13:46:22;9.02;;;4.55;;
64966;SDS011;51710;38.732;-121.358;2023-02-08T13:48:53;8.27;;;4.70;;
64966;SDS011;51710;38.732;-121.358;2023-02-08T13:54:09;10.35;;;5.75;;
64966;SDS011;51710;38.732;-121.358;2023-02-08T13:56:49;10.95;;;5.93;;
64966;SDS011;51710;38.732;-121.358;2023-02-08T13:59:33;8.20;;;5.40;;
64966;SDS011;51710;38.732;-121.358;2023-02-08T14:04:42;10.65;;;5.38;;
64966;SDS011;51710;38.732;-121.358;2023-02-08T14:07:21;10.80;;;5.28;;
64966;SDS011;51710;38.732;-121.358;2023-02-08T14:10:16;11.05;;;5.18;;
64966;SDS011;51710;38.732;-121.358;2023-02-08T14:16:42;7.82;;;4.70;;
64966;SDS011;51710;38.732;-121.358;2023-02-08T14:21:43;10.23;;;5.10;;
64966;SDS011;51710;38.732;-121.358;2023-02-08T14:24:31;9.45;;;4.60;;
64966;SDS011;51710;38.732;-121.358;2023-02-08T14:27:10;8.45;;;4.78;;
64966;SDS011;51710;38.732;-121.358;2023-02-08T14:32:37;9.60;;;5.57;;
64966;SDS011;51710;38.732;-121.358;2023-02-08T14:35:07;9.07;;;5.38;;
64966;SDS011;51710;38.732;-121.358;2023-02-08T14:37:45;10.82;;;6.13;;
64966;SDS011;51710;38.732;-121.358;2023-02-08T14:42:55;7.97;;;4.95;;
64966;SDS011;51710;38.732;-121.358;2023-02-08T14:45:42;7.60;;;5.30;;
64966;SDS011;51710;38.732;-121.358;2023-02-08T14:53:28;11.13;;;5.10;;
64966;SDS011;51710;38.732;-121.358;2023-02-08T14:58:45;10.13;;;5.15;;
64966;SDS011;51710;38.732;-121.358;2023-02-08T15:01:20;10.70;;;5.38;;
64966;SDS011;51710;38.732;-121.358;2023-02-08T15:03:54;9.30;;;5.45;;
64966;SDS011;51710;38.732;-121.358;2023-02-08T15:09:05;10.10;;;5.32;;
64966;SDS011;51710;38.732;-121.358;2023-02-08T15:11:40;8.50;;;5.13;;
64966;SDS011;51710;38.732;-121.358;2023-02-08T15:14:06;10.40;;;4.90;;
64966;SDS011;51710;38.732;-121.358;2023-02-08T15:16:43;7.95;;;4.68;;
64966;SDS011;51710;38.732;-121.358;2023-02-08T15:25:26;8.90;;;3.97;;
64966;SDS011;51710;38.732;-121.358;2023-02-08T15:28:03;9.07;;;4.10;;
64966;SDS011;51710;38.732;-121.358;2023-02-08T15:30:43;10.88;;;5.32;;
64966;SDS011;51710;38.732;-121.358;2023-02-08T15:33:14;19.85;;;9.88;;
64966;SDS011;51710;38.732;-121.358;2023-02-08T15:38:20;9.93;;;5.00;;
64966;SDS011;51710;38.732;-121.358;2023-02-08T15:41:01;9.25;;;4.35;;
64966;SDS011;51710;38.732;-121.358;2023-02-08T15:43:28;8.40;;;3.78;;
64966;SDS011;51710;38.732;-121.358;2023-02-08T15:45:55;9.25;;;4.53;;
64966;SDS011;51710;38.732;-121.358;2023-02-08T15:48:26;7.85;;;4.47;;
64966;SDS011;51710;38.732;-121.358;2023-02-08T15:50:53;10.93;;;4.13;;
64966;SDS011;51710;38.732;-121.358;2023-02-08T15:53:21;9.45;;;3.95;;
64966;SDS011;51710;38.732;-121.358;2023-02-08T15:55:49;8.02;;;3.95;;
64966;SDS011;51710;38.732;-121.358;2023-02-08T15:58:42;7.50;;;3.97;;
64966;SDS011;51710;38.732;-121.358;2023-02-08T16:01:16;8.45;;;3.60;;
64966;SDS011;51710;38.732;-121.358;2023-02-08T16:03:49;9.32;;;3.85;;
64966;SDS011;51710;38.732;-121.358;2023-02-08T16:06:22;9.35;;;4.20;;
64966;SDS011;51710;38.732;-121.358;2023-02-08T16:08:55;6.90;;;3.57;;
64966;SDS011;51710;38.732;-121.358;2023-02-08T16:11:27;7.28;;;4.13;;
64966;SDS011;51710;38.732;-121.358;2023-02-08T16:13:58;9.13;;;3.97;;
64966;SDS011;51710;38.732;-121.358;2023-02-08T16:16:40;8.00;;;4.70;;
64966;SDS011;51710;38.732;-121.358;2023-02-08T16:19:23;10.18;;;4.45;;
64966;SDS011;51710;38.732;-121.358;2023-02-08T16:21:55;8.93;;;4.45;;
64966;SDS011;51710;38.732;-121.358;2023-02-08T16:24:40;9.18;;;4.50;;
64966;SDS011;51710;38.732;-121.358;2023-02-08T16:27:28;10.38;;;4.85;;
64966;SDS011;51710;38.732;-121.358;2023-02-08T16:29:58;9.45;;;4.40;;
64966;SDS011;51710;38.732;-121.358;2023-02-08T16:34:50;8.18;;;4.25;;
64966;SDS011;51710;38.732;-121.358;2023-02-08T16:37:22;8.15;;;3.83;;
64966;SDS011;51710;38.732;-121.358;2023-02-08T16:47:43;7.97;;;4.78;;
64966;SDS011;51710;38.732;-121.358;2023-02-08T16:50:26;11.75;;;5.47;;
64966;SDS011;51710;38.732;-121.358;2023-02-08T16:53:00;10.68;;;5.18;;
64966;SDS011;51710;38.732;-121.358;2023-02-08T16:55:30;12.38;;;4.88;;
64966;SDS011;51710;38.732;-121.358;2023-02-08T16:57:57;11.30;;;5.43;;